Time;durP1;ratioP1;P1;durP2;ratioP2;P2;SDS_P1;SDS_P2;PMS_P1;PMS_P2;Temp;Humidity;BMP_temperature;BMP_pressure;BME280_temperature;BME280_humidity;BME280_pressure;Samples;Min_cycle;Max_cycle;Signal;HPM_P1;HPM_P2
2023/03/23 00:02:22;;;;;;;;;1.00;0.00;;;;;;;;5064597;28;61871;-85
2023/03/23 00:04:49;;;;;;;;;0.75;0.00;;;;;;;;5064556;28;61764;-85
2023/03/23 00:07:21;;;;;;;;;0.00;0.00;;;;;;;;5046659;28;62157;-85
2023/03/23 00:09:53;;;;;;;;;1.00;0.00;;;;;;;;5063975;28;61862;-85
2023/03/23 00:12:32;;;;;;;;;1.50;0.50;;;;;;;;5046641;28;61902;-85
2023/03/23 00:15:08;;;;;;;;;0.00;0.00;;;;;;;;5045977;28;61800;-85
2023/03/23 00:17:33;;;;;;;;;1.00;1.00;;;;;;;;5064969;28;61930;-85
2023/03/23 00:20:00;;;;;;;;;3.00;0.00;;;;;;;;5063812;28;62078;-85
2023/03/23 00:22:26;;;;;;;;;0.00;0.00;;;;;;;;5064691;28;61692;-85
2023/03/23 00:24:52;;;;;;;;;1.25;0.25;;;;;;;;5045588;28;61884;-84
2023/03/23 00:27:17;;;;;;;;;0.00;0.00;;;;;;;;5046564;28;62126;-85
2023/03/23 00:29:44;;;;;;;;;0.00;0.00;;;;;;;;5044942;28;64415;-85
2023/03/23 00:32:12;;;;;;;;;0.00;0.00;;;;;;;;5064293;28;61782;-85
2023/03/23 00:34:38;;;;;;;;;0.25;0.25;;;;;;;;5046413;28;61942;-86
2023/03/23 00:37:03;;;;;;;;;0.00;0.00;;;;;;;;5046226;28;62289;-85
2023/03/23 00:39:29;;;;;;;;;1.00;1.00;;;;;;;;5045474;28;64767;-85
2023/03/23 00:42:00;;;;;;;;;3.50;0.00;;;;;;;;5050869;28;61743;-85
2023/03/23 00:44:25;;;;;;;;;2.75;1.00;;;;;;;;5026045;28;61818;-85
2023/03/23 00:46:51;;;;;;;;;0.00;0.00;;;;;;;;5026127;28;62172;-85
2023/03/23 00:49:17;;;;;;;;;0.75;0.00;;;;;;;;5025436;28;63192;-85
2023/03/23 00:51:43;;;;;;;;;0.00;0.00;;;;;;;;5025925;28;61721;-85
2023/03/23 00:54:09;;;;;;;;;0.25;0.25;;;;;;;;5025731;28;61837;-85
2023/03/23 00:56:34;;;;;;;;;0.00;0.00;;;;;;;;5025283;28;61688;-84
2023/03/23 00:58:59;;;;;;;;;0.00;0.00;;;;;;;;5024754;28;63534;-85
2023/03/23 01:01:25;;;;;;;;;2.00;0.50;;;;;;;;5043690;28;61673;-85
2023/03/23 01:03:50;;;;;;;;;0.00;0.00;;;;;;;;5026016;28;61686;-85
2023/03/23 01:06:17;;;;;;;;;1.00;1.00;;;;;;;;5025615;28;61981;-85
2023/03/23 01:08:46;;;;;;;;;0.50;0.00;;;;;;;;5024948;28;63373;-85
2023/03/23 01:11:15;;;;;;;;;0.00;0.00;;;;;;;;5024784;28;61864;-85
2023/03/23 01:13:41;;;;;;;;;2.75;1.00;;;;;;;;5025606;28;62011;-85
2023/03/23 01:16:07;;;;;;;;;2.00;0.00;;;;;;;;5025626;28;62120;-85
2023/03/23 01:18:32;;;;;;;;;1.00;0.00;;;;;;;;5029091;28;63732;-84
2023/03/23 01:20:57;;;;;;;;;2.00;1.00;;;;;;;;5062155;28;62033;-86
2023/03/23 01:23:22;;;;;;;;;1.50;0.00;;;;;;;;5062190;28;62075;-85
2023/03/23 01:25:49;;;;;;;;;0.50;0.00;;;;;;;;5061364;28;61859;-85
2023/03/23 01:28:14;;;;;;;;;1.00;0.50;;;;;;;;5061257;28;63745;-85
2023/03/23 01:30:39;;;;;;;;;1.00;1.00;;;;;;;;5063006;28;61789;-85
2023/03/23 01:33:05;;;;;;;;;0.75;0.75;;;;;;;;5062291;28;61969;-85
2023/03/23 01:35:30;;;;;;;;;0.50;0.50;;;;;;;;5063344;28;62015;-85
2023/03/23 01:37:55;;;;;;;;;0.75;0.75;;;;;;;;5062661;28;62156;-85
2023/03/23 01:40:21;;;;;;;;;1.00;0.75;;;;;;;;5062581;28;62116;-85
2023/03/23 01:42:46;;;;;;;;;0.00;0.00;;;;;;;;5062134;28;61918;-85
2023/03/23 01:45:28;;;;;;;;;1.00;1.00;;;;;;;;5063562;28;61643;-85
2023/03/23 01:47:55;;;;;;;;;1.00;1.00;;;;;;;;5060932;28;64119;-85
2023/03/23 01:50:22;;;;;;;;;0.00;0.00;;;;;;;;5063066;28;61783;-85
2023/03/23 01:52:49;;;;;;;;;1.00;1.00;;;;;;;;5063159;28;61914;-85
2023/03/23 01:55:15;;;;;;;;;0.25;0.00;;;;;;;;5061110;28;61747;-85
2023/03/23 01:57:41;;;;;;;;;0.25;0.00;;;;;;;;5061052;28;63538;-85
2023/03/23 02:00:11;;;;;;;;;0.00;0.00;;;;;;;;5061164;28;61868;-85
2023/03/23 02:02:38;;;;;;;;;1.00;0.00;;;;;;;;5061522;28;62039;-85
2023/03/23 02:05:07;;;;;;;;;0.25;0.00;;;;;;;;5061920;28;61861;-85
2023/03/23 02:07:33;;;;;;;;;0.00;0.00;;;;;;;;5062194;28;63284;-85
2023/03/23 02:09:59;;;;;;;;;1.25;0.00;;;;;;;;5062163;28;62049;-84
2023/03/23 02:12:25;;;;;;;;;0.25;0.25;;;;;;;;5062673;28;61810;-85
2023/03/23 02:14:50;;;;;;;;;0.25;0.00;;;;;;;;5061839;28;61780;-85
2023/03/23 02:17:15;;;;;;;;;2.00;0.00;;;;;;;;5060973;28;63735;-85
2023/03/23 02:20:00;;;;;;;;;0.00;0.00;;;;;;;;5062353;28;61782;-85
2023/03/23 02:22:49;;;;;;;;;0.75;0.75;;;;;;;;5061370;28;62022;-85
2023/03/23 02:25:14;;;;;;;;;1.00;1.00;;;;;;;;5060990;28;61806;-85
2023/03/23 02:28:02;;;;;;;;;1.25;1.00;;;;;;;;5060509;28;63490;-85
2023/03/23 02:30:48;;;;;;;;;0.75;0.75;;;;;;;;5061899;28;61681;-85
2023/03/23 02:33:32;;;;;;;;;0.00;0.00;;;;;;;;5062288;28;61929;-85
2023/03/23 02:35:57;;;;;;;;;1.00;1.00;;;;;;;;5061410;28;61997;-85
2023/03/23 02:38:28;;;;;;;;;1.00;1.00;;;;;;;;5060249;28;63756;-85
2023/03/23 02:40:54;;;;;;;;;2.00;1.00;;;;;;;;5060864;28;61831;-85
2023/03/23 02:43:22;;;;;;;;;1.00;1.00;;;;;;;;5061001;28;61701;-85
2023/03/23 02:45:48;;;;;;;;;1.75;0.75;;;;;;;;5062490;28;62030;-85
2023/03/23 02:48:15;;;;;;;;;1.00;1.00;;;;;;;;5060152;28;64441;-85
2023/03/23 02:50:43;;;;;;;;;0.25;0.25;;;;;;;;5060987;28;61854;-85
2023/03/23 02:53:10;;;;;;;;;0.50;0.50;;;;;;;;5060599;28;61740;-85
2023/03/23 02:55:40;;;;;;;;;2.00;0.00;;;;;;;;5060493;28;62071;-85
2023/03/23 02:58:05;;;;;;;;;0.00;0.00;;;;;;;;5060294;28;64497;-85
2023/03/23 03:00:30;;;;;;;;;3.00;1.00;;;;;;;;5061776;28;61800;-85
2023/03/23 03:02:57;;;;;;;;;0.00;0.00;;;;;;;;5061083;28;62228;-85
2023/03/23 03:05:40;;;;;;;;;0.50;0.50;;;;;;;;5065446;28;61871;-85
2023/03/23 03:08:24;;;;;;;;;1.00;1.00;;;;;;;;5047742;28;63037;-85
2023/03/23 03:11:01;;;;;;;;;0.75;0.75;;;;;;;;5045092;28;62246;-85
2023/03/23 03:13:41;;;;;;;;;1.50;0.00;;;;;;;;5045593;28;61913;-85
2023/03/23 03:16:27;;;;;;;;;0.50;0.00;;;;;;;;5045522;28;61810;-84
2023/03/23 03:18:56;;;;;;;;;1.00;0.75;;;;;;;;5051204;28;62140;-85
2023/03/23 03:21:25;;;;;;;;;2.00;0.75;;;;;;;;5047321;28;61926;-85
2023/03/23 03:23:53;;;;;;;;;1.75;1.00;;;;;;;;5064680;28;61680;-85
2023/03/23 03:26:20;;;;;;;;;0.00;0.00;;;;;;;;5065278;28;61863;-85
2023/03/23 03:28:47;;;;;;;;;0.50;0.00;;;;;;;;5064137;28;62835;-85
2023/03/23 03:31:13;;;;;;;;;1.75;0.00;;;;;;;;5047105;28;61887;-85
2023/03/23 03:33:39;;;;;;;;;1.00;1.00;;;;;;;;5047243;28;61874;-85
2023/03/23 03:36:08;;;;;;;;;0.50;0.50;;;;;;;;5046696;28;62170;-85
2023/03/23 03:38:44;;;;;;;;;2.25;0.75;;;;;;;;5046684;28;63830;-85
2023/03/23 03:41:09;;;;;;;;;1.00;1.00;;;;;;;;5057828;28;62026;-85
2023/03/23 03:43:35;;;;;;;;;1.00;1.00;;;;;;;;5027140;28;61933;-85
2023/03/23 03:46:00;;;;;;;;;1.00;1.00;;;;;;;;5026803;28;62158;-85
2023/03/23 03:48:25;;;;;;;;;1.00;1.00;;;;;;;;5043913;28;61776;-86
2023/03/23 03:50:51;;;;;;;;;0.50;0.50;;;;;;;;5026371;28;61963;-85
2023/03/23 03:53:17;;;;;;;;;1.00;1.00;;;;;;;;5027085;28;61872;-85
2023/03/23 03:55:48;;;;;;;;;0.00;0.00;;;;;;;;5026875;28;62225;-85
2023/03/23 03:58:13;;;;;;;;;1.00;0.00;;;;;;;;5026222;28;63775;-85
2023/03/23 04:00:39;;;;;;;;;0.50;0.00;;;;;;;;5026339;28;61900;-85
2023/03/23 04:03:05;;;;;;;;;3.00;0.75;;;;;;;;5044419;28;61795;-86
2023/03/23 04:05:31;;;;;;;;;0.75;0.00;;;;;;;;5044304;28;61709;-85
2023/03/23 04:08:01;;;;;;;;;1.00;1.00;;;;;;;;5043891;28;62128;-85
2023/03/23 04:10:27;;;;;;;;;0.00;0.00;;;;;;;;5026294;28;61967;-85
2023/03/23 04:12:52;;;;;;;;;1.00;1.00;;;;;;;;5026196;28;61774;-85
2023/03/23 04:15:18;;;;;;;;;0.00;0.00;;;;;;;;5043680;28;61666;-85
2023/03/23 04:17:44;;;;;;;;;1.75;0.00;;;;;;;;5025887;28;64745;-85
2023/03/23 04:20:15;;;;;;;;;0.00;0.00;;;;;;;;5042961;28;61870;-85
2023/03/23 04:22:43;;;;;;;;;2.00;0.00;;;;;;;;5046631;28;61888;-85
2023/03/23 04:25:10;;;;;;;;;0.00;0.00;;;;;;;;5046109;28;61784;-84
2023/03/23 04:27:36;;;;;;;;;0.50;0.50;;;;;;;;5063811;28;62031;-85
2023/03/23 04:30:02;;;;;;;;;1.75;1.00;;;;;;;;5063724;28;61833;-85
2023/03/23 04:32:30;;;;;;;;;0.00;0.00;;;;;;;;5046540;28;61878;-85
2023/03/23 04:34:59;;;;;;;;;1.25;1.00;;;;;;;;5045857;28;62110;-85
2023/03/23 04:37:33;;;;;;;;;1.00;1.00;;;;;;;;5063578;28;62056;-85
2023/03/23 04:40:06;;;;;;;;;1.50;0.50;;;;;;;;5063962;28;61926;-85
2023/03/23 04:42:31;;;;;;;;;0.00;0.00;;;;;;;;5063938;28;62025;-85
2023/03/23 04:44:57;;;;;;;;;1.00;1.00;;;;;;;;5064323;28;61735;-85
2023/03/23 04:47:23;;;;;;;;;0.25;0.00;;;;;;;;5044310;28;63365;-85
2023/03/23 04:49:48;;;;;;;;;1.00;1.00;;;;;;;;5063736;28;61793;-86
2023/03/23 04:52:14;;;;;;;;;1.00;1.00;;;;;;;;5045766;28;62058;-85
2023/03/23 04:54:39;;;;;;;;;0.00;0.00;;;;;;;;5045741;28;61684;-85
2023/03/23 04:57:04;;;;;;;;;0.00;0.00;;;;;;;;5044906;28;64108;-86
2023/03/23 04:59:30;;;;;;;;;0.00;0.00;;;;;;;;5045235;28;61891;-85
2023/03/23 05:01:55;;;;;;;;;1.00;1.00;;;;;;;;5045727;28;61817;-84
2023/03/23 05:04:22;;;;;;;;;1.00;1.00;;;;;;;;5045439;28;62125;-85
2023/03/23 05:06:48;;;;;;;;;0.50;0.50;;;;;;;;5063376;28;62025;-86
2023/03/23 05:09:13;;;;;;;;;0.00;0.00;;;;;;;;5063601;28;61852;-85
2023/03/23 05:11:39;;;;;;;;;0.00;0.00;;;;;;;;5063598;28;61836;-85
2023/03/23 05:14:04;;;;;;;;;0.25;0.00;;;;;;;;5064103;28;61752;-85
2023/03/23 05:16:30;;;;;;;;;0.00;0.00;;;;;;;;5044662;28;63873;-85
2023/03/23 05:18:57;;;;;;;;;2.25;0.00;;;;;;;;5063123;28;61923;-84
2023/03/23 05:21:22;;;;;;;;;1.00;1.00;;;;;;;;5062170;28;61769;-85
2023/03/23 05:23:54;;;;;;;;;0.00;0.00;;;;;;;;5064017;28;61882;-85
2023/03/23 05:26:19;;;;;;;;;0.50;0.00;;;;;;;;5060794;28;63479;-85
2023/03/23 05:28:45;;;;;;;;;0.00;0.00;;;;;;;;5063095;28;61811;-85
2023/03/23 05:31:11;;;;;;;;;2.00;0.00;;;;;;;;5063423;28;61686;-85
2023/03/23 05:33:37;;;;;;;;;1.00;1.00;;;;;;;;5063186;28;61727;-85
2023/03/23 05:36:06;;;;;;;;;0.75;0.00;;;;;;;;5061570;28;63450;-85
2023/03/23 05:38:31;;;;;;;;;1.00;0.00;;;;;;;;5061704;28;61994;-85
2023/03/23 05:41:00;;;;;;;;;1.00;1.00;;;;;;;;5053579;28;61926;-85
2023/03/23 05:43:26;;;;;;;;;1.00;1.00;;;;;;;;5024864;28;62206;-85
2023/03/23 05:45:51;;;;;;;;;1.00;1.00;;;;;;;;5024817;28;64624;-85
2023/03/23 05:48:17;;;;;;;;;2.50;1.00;;;;;;;;5024519;28;61907;-85
2023/03/23 05:50:42;;;;;;;;;1.25;0.00;;;;;;;;5025358;28;61722;-85
2023/03/23 05:53:07;;;;;;;;;0.00;0.00;;;;;;;;5025595;28;61709;-85
2023/03/23 05:55:33;;;;;;;;;1.00;1.00;;;;;;;;5024012;28;63335;-84
2023/03/23 05:57:58;;;;;;;;;1.00;1.00;;;;;;;;5043121;28;61913;-85
2023/03/23 06:00:24;;;;;;;;;0.25;0.00;;;;;;;;5024934;28;61892;-85
2023/03/23 06:02:50;;;;;;;;;2.50;0.75;;;;;;;;5042844;28;61984;-85
2023/03/23 06:05:16;;;;;;;;;0.00;0.00;;;;;;;;5042698;28;62019;-84
2023/03/23 06:07:41;;;;;;;;;2.00;0.00;;;;;;;;5031322;28;61710;-91
2023/03/23 06:10:08;;;;;;;;;0.00;0.00;;;;;;;;5044607;28;61860;-87
2023/03/23 06:12:34;;;;;;;;;1.00;1.00;;;;;;;;5045022;28;62001;-90
2023/03/23 06:14:59;;;;;;;;;0.00;0.00;;;;;;;;5063361;28;62185;-85
2023/03/23 06:17:28;;;;;;;;;0.00;0.00;;;;;;;;5044320;28;61995;-88
2023/03/23 06:19:53;;;;;;;;;2.00;1.00;;;;;;;;5056529;28;61777;-90
2023/03/23 06:25:34;;;;;;;;;1.00;1.00;;;;;;;;5062405;28;61919;-90
2023/03/23 06:28:00;;;;;;;;;2.00;1.00;;;;;;;;5044933;28;61838;-88
2023/03/23 06:30:28;;;;;;;;;1.00;0.00;;;;;;;;5034539;28;61819;-91
2023/03/23 06:32:54;;;;;;;;;0.00;0.00;;;;;;;;5055713;28;62178;-87
2023/03/23 06:35:19;;;;;;;;;0.50;0.00;;;;;;;;5043409;28;62547;-89
2023/03/23 06:37:45;;;;;;;;;1.25;0.00;;;;;;;;5061973;28;61636;-89
2023/03/23 06:40:11;;;;;;;;;1.00;1.00;;;;;;;;5043066;28;61833;-87
2023/03/23 06:45:43;;;;;;;;;1.00;1.00;;;;;;;;5067597;22;62183;-83
2023/03/23 06:48:08;;;;;;;;;2.00;0.00;;;;;;;;5035914;28;61946;-83
2023/03/23 06:50:33;;;;;;;;;0.50;0.00;;;;;;;;5052892;28;62046;-83
2023/03/23 06:52:58;;;;;;;;;1.00;1.00;;;;;;;;5033150;28;62212;-83
2023/03/23 06:55:24;;;;;;;;;1.50;1.50;;;;;;;;5034493;28;63680;-83
2023/03/23 06:57:49;;;;;;;;;1.00;0.25;;;;;;;;5050345;28;61726;-83
2023/03/23 07:00:15;;;;;;;;;3.00;1.00;;;;;;;;5034373;28;62102;-83
2023/03/23 07:02:40;;;;;;;;;2.50;1.00;;;;;;;;5050357;28;62146;-83
2023/03/23 07:05:07;;;;;;;;;2.00;1.00;;;;;;;;5023533;28;63730;-83
2023/03/23 07:07:32;;;;;;;;;1.00;1.00;;;;;;;;5023689;28;61870;-83
2023/03/23 07:09:57;;;;;;;;;0.50;0.50;;;;;;;;5052454;28;61881;-82
2023/03/23 07:12:23;;;;;;;;;1.00;1.00;;;;;;;;5043406;28;62183;-84
2023/03/23 07:14:59;;;;;;;;;1.00;1.00;;;;;;;;5044706;28;65109;-84
2023/03/23 07:17:25;;;;;;;;;3.00;2.00;;;;;;;;5039212;28;61788;-84
2023/03/23 07:19:51;;;;;;;;;0.00;0.00;;;;;;;;5041792;28;61930;-84
2023/03/23 07:22:16;;;;;;;;;2.00;2.00;;;;;;;;5047096;28;61684;-84
2023/03/23 07:24:41;;;;;;;;;1.25;1.00;;;;;;;;5042547;28;64979;-83
2023/03/23 07:27:07;;;;;;;;;1.00;1.00;;;;;;;;5043288;28;61792;-84
2023/03/23 07:29:34;;;;;;;;;1.00;1.00;;;;;;;;5053560;28;62452;-84
2023/03/23 07:32:01;;;;;;;;;1.00;1.00;;;;;;;;5024192;28;61706;-84
2023/03/23 07:34:27;;;;;;;;;1.75;1.00;;;;;;;;5041197;28;62182;-85
2023/03/23 07:36:52;;;;;;;;;1.50;1.25;;;;;;;;5023432;28;61320;-85
2023/03/23 07:39:17;;;;;;;;;1.00;1.00;;;;;;;;5044000;28;61812;-86
2023/03/23 07:41:42;;;;;;;;;1.00;1.00;;;;;;;;5042528;28;61918;-86
2023/03/23 07:44:08;;;;;;;;;4.00;3.00;;;;;;;;5040475;28;63863;-85
2023/03/23 07:46:33;;;;;;;;;3.00;1.00;;;;;;;;5061300;28;61910;-85
2023/03/23 07:48:59;;;;;;;;;2.00;2.00;;;;;;;;5036417;28;63025;-85
2023/03/23 07:51:25;;;;;;;;;1.00;0.25;;;;;;;;5029235;28;61949;-83
2023/03/23 07:53:51;;;;;;;;;1.00;1.00;;;;;;;;5044029;28;61850;-84
2023/03/23 07:56:19;;;;;;;;;3.75;1.00;;;;;;;;5025823;28;61918;-84
2023/03/23 07:58:44;;;;;;;;;1.00;1.00;;;;;;;;5025912;28;61808;-85
2023/03/23 08:01:10;;;;;;;;;2.50;2.00;;;;;;;;5044796;28;62199;-85
2023/03/23 08:03:36;;;;;;;;;1.75;1.00;;;;;;;;5026052;28;64101;-84
2023/03/23 08:06:01;;;;;;;;;3.50;2.75;;;;;;;;5044616;28;61767;-85
2023/03/23 08:08:26;;;;;;;;;1.00;1.00;;;;;;;;5028966;28;61763;-86
2023/03/23 08:10:52;;;;;;;;;2.50;1.00;;;;;;;;5026783;28;62164;-84
2023/03/23 08:13:18;;;;;;;;;1.00;1.00;;;;;;;;5025479;28;63658;-85
2023/03/23 08:15:44;;;;;;;;;2.75;1.50;;;;;;;;5038522;28;61881;-85
2023/03/23 08:18:12;;;;;;;;;2.00;1.00;;;;;;;;5040173;28;61929;-85
2023/03/23 08:20:37;;;;;;;;;1.00;1.00;;;;;;;;5064644;28;61782;-85
2023/03/23 08:23:03;;;;;;;;;3.25;2.00;;;;;;;;5063563;28;61712;-85
2023/03/23 08:25:31;;;;;;;;;1.00;0.25;;;;;;;;5064116;28;61990;-85
2023/03/23 08:27:57;;;;;;;;;3.00;2.00;;;;;;;;5046123;28;61914;-85
2023/03/23 08:30:23;;;;;;;;;1.00;1.00;;;;;;;;5046052;28;61839;-85
2023/03/23 08:32:48;;;;;;;;;2.00;1.00;;;;;;;;5042070;28;63269;-84
2023/03/23 08:35:14;;;;;;;;;3.50;2.00;;;;;;;;5044296;28;61882;-82
2023/03/23 08:37:41;;;;;;;;;2.00;1.00;;;;;;;;5042777;28;61891;-83
2023/03/23 08:40:08;;;;;;;;;1.25;1.25;;;;;;;;5030824;28;62165;-83
2023/03/23 08:42:34;;;;;;;;;1.00;1.00;;;;;;;;5045384;28;62092;-83
2023/03/23 08:45:00;;;;;;;;;4.75;2.00;;;;;;;;5024349;28;61823;-84
2023/03/23 08:47:26;;;;;;;;;1.75;1.00;;;;;;;;5062581;28;62250;-81
2023/03/23 08:49:53;;;;;;;;;1.50;0.25;;;;;;;;5036527;28;62109;-83
2023/03/23 08:52:19;;;;;;;;;1.00;1.00;;;;;;;;5041877;28;62953;-83
2023/03/23 08:54:46;;;;;;;;;0.25;0.25;;;;;;;;5024569;28;62129;-83
2023/03/23 08:57:12;;;;;;;;;0.75;0.75;;;;;;;;5043045;28;62197;-83
2023/03/23 08:59:37;;;;;;;;;1.75;1.75;;;;;;;;5025209;28;62004;-84
2023/03/23 09:02:03;;;;;;;;;5.25;2.00;;;;;;;;5024144;28;65011;-83
2023/03/23 09:04:28;;;;;;;;;2.50;2.00;;;;;;;;5048331;28;62006;-82
2023/03/23 09:06:54;;;;;;;;;1.00;1.00;;;;;;;;5045770;28;61969;-83
2023/03/23 09:09:20;;;;;;;;;1.00;1.00;;;;;;;;5026032;28;61904;-83
2023/03/23 09:11:46;;;;;;;;;4.00;1.00;;;;;;;;5042634;28;61905;-83
2023/03/23 09:14:11;;;;;;;;;2.50;2.00;;;;;;;;5043558;28;61805;-83
2023/03/23 09:16:36;;;;;;;;;2.00;1.00;;;;;;;;5043189;28;61867;-83
2023/03/23 09:19:02;;;;;;;;;2.00;1.00;;;;;;;;5026597;28;62351;-83
2023/03/23 09:21:27;;;;;;;;;1.50;1.00;;;;;;;;5062664;28;61845;-84
2023/03/23 09:23:56;;;;;;;;;1.00;1.00;;;;;;;;5063409;28;61728;-84
2023/03/23 09:26:21;;;;;;;;;0.00;0.00;;;;;;;;5044561;28;61943;-84
2023/03/23 09:28:47;;;;;;;;;3.00;0.75;;;;;;;;5044967;28;62081;-83
2023/03/23 09:31:12;;;;;;;;;3.00;1.00;;;;;;;;5044816;28;63483;-84
2023/03/23 09:33:38;;;;;;;;;1.75;1.75;;;;;;;;5062635;28;61752;-84
2023/03/23 09:36:04;;;;;;;;;1.00;1.00;;;;;;;;5045070;28;61882;-84
2023/03/23 09:38:32;;;;;;;;;0.75;0.75;;;;;;;;5044910;28;62124;-84
2023/03/23 09:41:04;;;;;;;;;1.25;1.00;;;;;;;;5044004;28;64032;-84
2023/03/23 09:43:36;;;;;;;;;1.25;0.75;;;;;;;;5062638;28;61978;-84
2023/03/23 09:46:20;;;;;;;;;2.00;0.00;;;;;;;;5038283;28;62016;-84
2023/03/23 09:48:46;;;;;;;;;1.00;1.00;;;;;;;;5024752;28;61784;-84
2023/03/23 09:51:14;;;;;;;;;4.75;1.25;;;;;;;;5024172;28;63508;-84
2023/03/23 09:53:42;;;;;;;;;1.00;1.00;;;;;;;;5042333;28;61642;-84
2023/03/23 09:56:12;;;;;;;;;1.50;1.50;;;;;;;;5024314;28;61961;-83
2023/03/23 09:58:43;;;;;;;;;3.25;2.00;;;;;;;;5024271;28;62152;-83
2023/03/23 10:01:14;;;;;;;;;3.00;2.00;;;;;;;;5024211;28;63878;-84
2023/03/23 10:03:41;;;;;;;;;1.50;1.50;;;;;;;;5024165;28;62120;-83
2023/03/23 10:06:12;;;;;;;;;2.00;1.00;;;;;;;;5042357;28;61844;-83
2023/03/23 10:08:39;;;;;;;;;4.25;1.25;;;;;;;;5024170;28;61910;-83
2023/03/23 10:11:35;;;;;;;;;1.25;1.25;;;;;;;;5041542;28;62034;-84
2023/03/23 10:14:14;;;;;;;;;4.00;2.50;;;;;;;;5006945;28;62166;-84
2023/03/23 10:16:51;;;;;;;;;1.00;1.00;;;;;;;;5024150;28;61887;-83
2023/03/23 10:19:20;;;;;;;;;2.00;1.00;;;;;;;;5027927;28;62018;-83
2023/03/23 10:21:51;;;;;;;;;3.00;2.00;;;;;;;;5043352;28;64077;-84
2023/03/23 10:24:19;;;;;;;;;3.00;2.00;;;;;;;;5062260;28;62017;-84
2023/03/23 10:27:10;;;;;;;;;2.00;2.00;;;;;;;;5043724;28;62015;-84
2023/03/23 10:29:38;;;;;;;;;1.00;0.00;;;;;;;;5044002;28;62150;-84
2023/03/23 10:32:15;;;;;;;;;0.75;0.75;;;;;;;;5061593;28;61749;-84
2023/03/23 10:34:54;;;;;;;;;4.50;1.50;;;;;;;;5043852;28;61922;-84
2023/03/23 10:37:23;;;;;;;;;4.00;1.00;;;;;;;;5061772;28;61914;-83
2023/03/23 10:39:54;;;;;;;;;5.00;1.50;;;;;;;;5062162;28;61856;-84
2023/03/23 10:42:49;;;;;;;;;3.25;0.50;;;;;;;;5042895;28;63768;-85
2023/03/23 10:45:18;;;;;;;;;1.00;1.00;;;;;;;;5026763;28;61767;-84
2023/03/23 10:47:46;;;;;;;;;2.00;2.00;;;;;;;;5025798;28;62074;-84
2023/03/23 10:50:16;;;;;;;;;2.00;0.25;;;;;;;;5041983;28;61683;-84
2023/03/23 10:52:42;;;;;;;;;2.00;1.00;;;;;;;;5023059;28;64127;-83
2023/03/23 10:55:09;;;;;;;;;0.25;0.25;;;;;;;;5041831;28;61688;-84
2023/03/23 10:57:36;;;;;;;;;2.75;1.00;;;;;;;;5023247;28;61889;-83
2023/03/23 11:00:06;;;;;;;;;1.00;0.00;;;;;;;;5023853;28;61956;-84
2023/03/23 11:02:31;;;;;;;;;4.75;1.00;;;;;;;;5022941;28;63665;-84
2023/03/23 11:05:01;;;;;;;;;1.00;1.00;;;;;;;;5041364;28;61834;-83
2023/03/23 11:07:29;;;;;;;;;2.00;2.00;;;;;;;;5023431;28;61964;-84
2023/03/23 11:09:56;;;;;;;;;0.50;0.00;;;;;;;;5023710;28;61784;-84
2023/03/23 11:12:22;;;;;;;;;2.50;1.00;;;;;;;;5022767;28;64120;-84
2023/03/23 11:14:48;;;;;;;;;1.00;1.00;;;;;;;;5023424;28;61721;-81
2023/03/23 11:17:27;;;;;;;;;2.75;1.00;;;;;;;;5023357;28;61802;-83
2023/03/23 11:19:54;;;;;;;;;4.50;1.00;;;;;;;;5032053;28;62186;-83
2023/03/23 11:22:26;;;;;;;;;2.50;2.50;;;;;;;;5042556;28;62878;-84
2023/03/23 11:24:59;;;;;;;;;2.25;1.00;;;;;;;;5044238;28;61918;-83
2023/03/23 11:27:24;;;;;;;;;3.00;1.00;;;;;;;;5064757;28;62150;-83
2023/03/23 11:30:08;;;;;;;;;3.00;2.00;;;;;;;;5046700;28;61993;-84
2023/03/23 11:32:35;;;;;;;;;2.00;1.00;;;;;;;;5046335;28;64823;-83
2023/03/23 11:35:04;;;;;;;;;1.75;1.00;;;;;;;;5046622;28;62115;-83
2023/03/23 11:37:34;;;;;;;;;1.00;1.00;;;;;;;;5046697;28;61923;-83
2023/03/23 11:40:00;;;;;;;;;2.50;1.00;;;;;;;;5065275;28;61709;-83
2023/03/23 11:42:32;;;;;;;;;2.50;2.00;;;;;;;;5045647;28;64619;-84
2023/03/23 11:45:32;;;;;;;;;4.00;1.50;;;;;;;;5064573;28;61692;-83
2023/03/23 11:48:07;;;;;;;;;3.25;2.00;;;;;;;;4943230;28;61981;-83
2023/03/23 11:50:51;;;;;;;;;2.00;1.00;;;;;;;;4944118;28;61996;-83
2023/03/23 11:53:27;;;;;;;;;2.00;1.00;;;;;;;;4942814;28;62095;-80
2023/03/23 11:56:01;;;;;;;;;1.67;1.00;;;;;;;;4943121;28;61922;-81
2023/03/23 11:58:32;;;;;;;;;1.00;1.00;;;;;;;;4943575;28;61883;-83
2023/03/23 12:01:00;;;;;;;;;1.75;1.00;;;;;;;;4943687;28;61979;-84
2023/03/23 12:03:33;;;;;;;;;2.25;1.25;;;;;;;;4926452;28;63710;-81
2023/03/23 12:06:06;;;;;;;;;3.50;2.00;;;;;;;;4927165;28;61863;-82
2023/03/23 12:08:37;;;;;;;;;3.67;1.00;;;;;;;;4943625;28;61998;-82
2023/03/23 12:11:12;;;;;;;;;4.25;2.00;;;;;;;;4927226;28;61990;-82
2023/03/23 12:14:00;;;;;;;;;2.25;1.00;;;;;;;;4926763;28;63790;-82
2023/03/23 12:16:39;;;;;;;;;1.00;1.00;;;;;;;;4943242;28;61994;-82
2023/03/23 12:19:17;;;;;;;;;2.25;2.00;;;;;;;;4927355;28;61958;-82
2023/03/23 12:22:08;;;;;;;;;2.00;1.00;;;;;;;;4985408;28;62277;-82
2023/03/23 12:24:43;;;;;;;;;3.75;2.00;;;;;;;;5059402;28;61800;-81
2023/03/23 12:27:19;;;;;;;;;2.33;1.00;;;;;;;;5044930;28;61951;-81
2023/03/23 12:29:49;;;;;;;;;4.00;1.00;;;;;;;;5064058;28;61931;-82
2023/03/23 12:32:18;;;;;;;;;3.50;1.50;;;;;;;;5045552;28;61963;-82
2023/03/23 12:34:52;;;;;;;;;2.00;2.00;;;;;;;;5045144;28;65261;-82
2023/03/23 12:37:33;;;;;;;;;3.00;1.67;;;;;;;;5044531;28;61772;-81
2023/03/23 12:39:58;;;;;;;;;3.00;1.00;;;;;;;;5064172;28;61915;-82
2023/03/23 12:43:02;;;;;;;;;5.00;2.00;;;;;;;;5045384;28;62186;-82
2023/03/23 12:45:46;;;;;;;;;3.00;2.00;;;;;;;;4964221;28;63620;-81
2023/03/23 12:48:28;;;;;;;;;1.67;0.67;;;;;;;;4969415;28;61884;-82
2023/03/23 12:51:00;;;;;;;;;2.67;1.67;;;;;;;;4945914;28;62130;-81
2023/03/23 12:53:30;;;;;;;;;3.33;1.33;;;;;;;;4945935;28;62147;-82
2023/03/23 12:56:15;;;;;;;;;3.67;1.33;;;;;;;;4961431;28;62860;-82
2023/03/23 12:58:45;;;;;;;;;2.67;1.67;;;;;;;;4945589;28;61746;-82
2023/03/23 13:01:13;;;;;;;;;1.67;1.67;;;;;;;;4962008;28;61963;-81
2023/03/23 13:03:44;;;;;;;;;6.33;1.33;;;;;;;;4961538;28;61899;-82
2023/03/23 13:06:15;;;;;;;;;1.67;1.67;;;;;;;;4961393;28;61953;-81
2023/03/23 13:08:53;;;;;;;;;3.33;0.67;;;;;;;;4945311;28;61957;-81
2023/03/23 13:11:32;;;;;;;;;1.67;0.00;;;;;;;;4961625;28;62010;-81
2023/03/23 13:14:17;;;;;;;;;2.67;2.67;;;;;;;;4945916;28;62121;-81
2023/03/23 13:16:49;;;;;;;;;3.67;1.67;;;;;;;;5002340;28;65441;-82
2023/03/23 13:19:17;;;;;;;;;3.67;1.33;;;;;;;;5023629;28;61986;-82
2023/03/23 13:21:50;;;;;;;;;2.00;1.00;;;;;;;;5041532;28;61852;-82
2023/03/23 13:24:18;;;;;;;;;1.00;1.00;;;;;;;;5043193;28;62114;-81
2023/03/23 13:26:44;;;;;;;;;1.00;1.00;;;;;;;;5040623;28;64156;-81
2023/03/23 13:29:14;;;;;;;;;3.67;1.67;;;;;;;;5041396;28;62159;-82
2023/03/23 13:31:40;;;;;;;;;1.67;1.00;;;;;;;;5042571;28;61747;-81
2023/03/23 13:34:12;;;;;;;;;2.67;1.67;;;;;;;;5041546;28;61810;-81
2023/03/23 13:37:05;;;;;;;;;3.00;2.00;;;;;;;;5042203;28;61933;-83
2023/03/23 13:39:49;;;;;;;;;2.67;2.00;;;;;;;;5029651;28;61751;-82
2023/03/23 13:42:14;;;;;;;;;3.33;2.33;;;;;;;;5031031;28;61944;-83
2023/03/23 13:44:48;;;;;;;;;1.00;1.00;;;;;;;;5032387;28;62119;-82
2023/03/23 13:49:52;;;;;;;;;3.00;1.33;;;;;;;;5050900;28;62104;-79
2023/03/23 13:52:22;;;;;;;;;2.33;0.33;;;;;;;;5034629;28;62379;-83
2023/03/23 13:54:48;;;;;;;;;2.33;1.00;;;;;;;;5029861;28;61839;-85
2023/03/23 13:57:25;;;;;;;;;3.67;1.00;;;;;;;;5058143;28;61851;-84
2023/03/23 13:59:58;;;;;;;;;3.33;1.33;;;;;;;;5037934;28;61978;-82
2023/03/23 14:02:27;;;;;;;;;2.00;2.00;;;;;;;;5035613;28;61872;-82
2023/03/23 14:04:52;;;;;;;;;1.00;1.00;;;;;;;;5040746;28;61790;-85
2023/03/23 14:07:18;;;;;;;;;1.00;1.00;;;;;;;;5060054;28;63073;-83
2023/03/23 14:09:45;;;;;;;;;3.00;1.00;;;;;;;;5060203;28;61841;-83
2023/03/23 14:12:17;;;;;;;;;1.00;1.00;;;;;;;;5042253;28;62026;-83
2023/03/23 14:14:45;;;;;;;;;2.00;1.00;;;;;;;;5043941;28;61804;-83
2023/03/23 14:17:15;;;;;;;;;3.67;1.00;;;;;;;;5043645;28;63243;-84
2023/03/23 14:19:41;;;;;;;;;5.67;1.67;;;;;;;;5043998;28;62025;-83
2023/03/23 14:22:17;;;;;;;;;3.33;1.33;;;;;;;;5044192;28;61899;-82
2023/03/23 14:24:42;;;;;;;;;1.00;1.00;;;;;;;;5044135;28;62137;-83
2023/03/23 14:27:07;;;;;;;;;1.00;1.00;;;;;;;;5043301;28;63888;-83
2023/03/23 14:29:33;;;;;;;;;3.00;1.67;;;;;;;;5043448;28;61965;-83
2023/03/23 14:31:59;;;;;;;;;1.00;1.00;;;;;;;;5062356;28;62458;-83
2023/03/23 14:34:25;;;;;;;;;0.00;0.00;;;;;;;;5044088;28;62117;-83
2023/03/23 14:36:52;;;;;;;;;1.00;1.00;;;;;;;;5043113;28;64468;-83
2023/03/23 14:39:33;;;;;;;;;1.00;1.00;;;;;;;;5061996;28;61769;-83
2023/03/23 14:42:03;;;;;;;;;1.00;0.00;;;;;;;;5043523;28;61810;-83
2023/03/23 14:44:30;;;;;;;;;3.00;1.67;;;;;;;;5061753;28;61701;-83
2023/03/23 14:46:57;;;;;;;;;1.00;1.00;;;;;;;;5042888;28;63560;-83
2023/03/23 14:49:42;;;;;;;;;3.67;1.67;;;;;;;;5033290;28;61933;-83
2023/03/23 14:52:12;;;;;;;;;3.33;1.67;;;;;;;;5023741;28;61935;-83
2023/03/23 14:54:38;;;;;;;;;0.67;0.67;;;;;;;;5024086;28;62311;-85
2023/03/23 14:57:25;;;;;;;;;1.67;1.00;;;;;;;;5022130;28;63846;-83
2023/03/23 14:59:51;;;;;;;;;1.00;1.00;;;;;;;;5023811;28;62166;-83
2023/03/23 15:02:19;;;;;;;;;1.67;1.67;;;;;;;;5027342;28;61784;-82
2023/03/23 15:04:47;;;;;;;;;1.00;1.00;;;;;;;;5045526;28;61894;-83